Terminal Aerodrome Forecast
Issued by NWS

Home | Current Version | Previous Version | Text Only | Print | Product List | Glossary On
Versions: 1 2 3 4 5 6 7 8 9 10 11 12 13 14 15 16 17 18
000
FTUS45 KBOU 240529
TAFBJC
TAF
KBJC 240529Z 2406/2506 VRB06KT P6SM FEW080 SCT120
     FM241100 VRB05KT P6SM SCT010 SCT220
      TEMPO 2412/2415 BKN010
     FM241500 15010KT P6SM SCT100 SCT220
     FM241800 11012KT P6SM SCT060 SCT120
     FM242000 32014G22KT P6SM VCTS SCT080CB BKN120 PROB30 2420/2424
      VRB18G30KT -TSRA BKN080CB
     FM250000 32008KT P6SM FEW080 SCT120=

USA.gov is the U.S. government's official web portal to all federal, state and local government web resources and services.